Time;durP1;ratioP1;P1;durP2;ratioP2;P2;SDS_P1;SDS_P2;PMS_P1;PMS_P2;Temp;Humidity;BMP_temperature;BMP_pressure;BME280_temperature;BME280_humidity;BME280_pressure;Samples;Min_cycle;Max_cycle;Signal;HPM_P1;HPM_P2
2022/03/27 00:00:34;;;;;;;20.83;9.57;;;9.70;99.90;;;;;;5071463;28;20220;-74
2022/03/27 00:03:00;;;;;;;15.03;8.00;;;9.70;99.90;;;;;;5071201;28;20199;-74
2022/03/27 00:05:25;;;;;;;19.17;9.73;;;9.80;99.90;;;;;;5071468;28;20536;-74
2022/03/27 00:07:51;;;;;;;19.63;9.30;;;9.70;99.90;;;;;;5071404;28;20181;-74
2022/03/27 00:10:16;;;;;;;25.07;10.60;;;9.60;99.90;;;;;;5071290;28;20192;-74
2022/03/27 00:12:42;;;;;;;19.67;10.53;;;9.60;99.90;;;;;;5071204;28;20598;-74
2022/03/27 00:15:09;;;;;;;18.93;10.40;;;9.60;99.90;;;;;;5070480;28;20201;-74
2022/03/27 00:17:35;;;;;;;17.93;10.10;;;9.60;99.90;;;;;;5071258;28;20557;-74
2022/03/27 00:20:08;;;;;;;15.13;9.60;;;9.60;99.90;;;;;;5072463;28;20271;-74
2022/03/27 00:22:37;;;;;;;21.30;10.87;;;9.70;99.90;;;;;;5070961;28;20310;-74
2022/03/27 00:25:07;;;;;;;18.03;10.67;;;9.60;99.90;;;;;;5071203;28;20185;-74
2022/03/27 00:27:34;;;;;;;24.80;11.70;;;9.70;99.90;;;;;;5071138;28;20184;-77
2022/03/27 00:30:00;;;;;;;18.93;10.97;;;9.60;99.90;;;;;;5071380;28;20667;-77
2022/03/27 00:32:26;;;;;;;18.50;11.47;;;9.60;99.90;;;;;;5070987;28;20189;-77
2022/03/27 00:34:53;;;;;;;23.27;12.67;;;9.40;99.90;;;;;;5070999;28;20177;-76
2022/03/27 00:37:19;;;;;;;21.87;12.43;;;9.40;99.90;;;;;;5071017;28;20181;-77
2022/03/27 00:39:44;;;;;;;21.53;12.37;;;9.40;99.90;;;;;;5070662;28;20223;-78
2022/03/27 00:42:10;;;;;;;21.40;12.00;;;9.10;99.90;;;;;;5070832;28;20168;-76
2022/03/27 00:44:38;;;;;;;24.03;12.80;;;9.10;99.90;;;;;;5070956;28;20606;-77
2022/03/27 00:47:05;;;;;;;23.27;12.13;;;9.10;99.90;;;;;;5070958;28;20657;-77
2022/03/27 00:49:32;;;;;;;22.87;12.37;;;9.20;99.90;;;;;;5070468;28;20205;-77
2022/03/27 00:51:57;;;;;;;20.80;12.80;;;9.30;99.90;;;;;;5070745;28;20271;-76
2022/03/27 00:54:23;;;;;;;20.30;10.77;;;9.20;99.90;;;;;;5070750;28;20219;-77
2022/03/27 00:56:49;;;;;;;21.10;10.77;;;9.20;99.90;;;;;;5070909;28;20177;-76
2022/03/27 00:59:14;;;;;;;17.10;11.70;;;8.90;99.90;;;;;;5070827;28;20860;-77
2022/03/27 01:01:42;;;;;;;20.30;10.43;;;9.00;99.90;;;;;;5070582;28;20177;-77
2022/03/27 01:04:10;;;;;;;22.33;11.63;;;9.10;99.90;;;;;;5070464;28;20173;-77
2022/03/27 01:06:39;;;;;;;22.67;12.03;;;9.10;99.90;;;;;;5070802;28;20184;-77
2022/03/27 01:11:54;;;;;;;25.77;14.27;;;9.10;99.90;;;;;;5072222;28;20218;-77
2022/03/27 01:14:31;;;;;;;26.13;13.60;;;9.10;99.90;;;;;;5070658;28;20172;-77
2022/03/27 01:17:09;;;;;;;22.97;13.57;;;9.10;99.90;;;;;;5070720;28;20211;-77
2022/03/27 01:19:40;;;;;;;23.30;14.00;;;9.10;99.90;;;;;;5070469;28;20727;-77
2022/03/27 01:22:06;;;;;;;26.87;13.33;;;9.00;99.90;;;;;;5070390;28;20645;-78
2022/03/27 01:24:31;;;;;;;25.10;12.80;;;9.00;99.90;;;;;;5070595;28;20178;-78
2022/03/27 01:26:57;;;;;;;24.10;13.00;;;9.10;99.90;;;;;;5073919;28;20181;-77
2022/03/27 01:29:23;;;;;;;21.17;12.83;;;9.00;99.90;;;;;;5074404;28;20646;-78
2022/03/27 01:31:51;;;;;;;23.40;12.80;;;8.80;99.90;;;;;;5074382;28;20189;-78
2022/03/27 01:34:17;;;;;;;24.20;13.80;;;8.90;99.90;;;;;;5074459;28;20180;-77
2022/03/27 01:36:43;;;;;;;22.67;13.13;;;9.00;99.90;;;;;;5074376;28;20537;-77
2022/03/27 01:39:11;;;;;;;21.97;12.73;;;9.00;99.90;;;;;;5074189;28;20219;-77
2022/03/27 01:41:38;;;;;;;24.20;13.10;;;8.70;99.90;;;;;;5073478;28;20177;-78
2022/03/27 01:44:06;;;;;;;23.13;13.23;;;8.80;99.90;;;;;;5074192;28;20176;-78
2022/03/27 01:46:37;;;;;;;25.23;13.00;;;8.80;99.90;;;;;;5074260;28;20173;-77
2022/03/27 01:49:06;;;;;;;22.40;13.07;;;8.80;99.90;;;;;;5074166;28;20326;-78
2022/03/27 01:51:32;;;;;;;21.87;12.87;;;8.90;99.90;;;;;;5073511;28;20650;-77
2022/03/27 01:53:58;;;;;;;20.83;13.03;;;8.90;99.90;;;;;;5074084;28;20191;-78
2022/03/27 01:56:25;;;;;;;19.53;11.80;;;8.90;99.90;;;;;;5073997;28;20188;-78
2022/03/27 01:58:51;;;;;;;22.20;12.70;;;8.90;99.90;;;;;;5073913;28;20212;-78
2022/03/27 02:01:17;;;;;;;19.10;12.20;;;9.00;99.90;;;;;;5073643;28;20188;-77
2022/03/27 02:03:43;;;;;;;21.17;12.87;;;9.00;99.90;;;;;;5073088;28;20176;-77
2022/03/27 02:06:09;;;;;;;22.50;12.83;;;9.00;99.90;;;;;;5073486;28;20223;-77
2022/03/27 02:08:35;;;;;;;21.73;12.60;;;8.80;99.90;;;;;;5073588;28;20604;-77
2022/03/27 02:11:02;;;;;;;20.53;12.43;;;8.80;99.90;;;;;;5073666;28;20230;-77
2022/03/27 02:13:29;;;;;;;21.83;12.67;;;8.80;99.90;;;;;;5073782;28;20181;-77
2022/03/27 02:15:58;;;;;;;20.90;12.73;;;8.90;99.90;;;;;;5073650;28;20277;-78
2022/03/27 02:18:29;;;;;;;21.50;12.63;;;8.90;99.90;;;;;;5073538;28;20225;-78
2022/03/27 02:20:55;;;;;;;20.33;12.43;;;8.90;99.90;;;;;;5073558;28;20267;-77
2022/03/27 02:23:24;;;;;;;22.80;11.93;;;8.90;99.90;;;;;;5073373;28;20173;-77
2022/03/27 02:25:51;;;;;;;21.03;12.27;;;8.90;99.90;;;;;;5073487;28;20242;-77
2022/03/27 02:28:17;;;;;;;22.17;12.27;;;8.80;99.90;;;;;;5073270;28;20242;-77
2022/03/27 02:30:43;;;;;;;21.47;11.80;;;8.70;99.90;;;;;;5073434;28;20294;-77
2022/03/27 02:33:09;;;;;;;23.37;12.63;;;8.80;99.90;;;;;;5073307;28;20213;-77
2022/03/27 02:35:35;;;;;;;23.77;11.70;;;8.60;99.90;;;;;;5073241;28;20184;-77
2022/03/27 02:38:05;;;;;;;21.63;13.03;;;8.70;99.90;;;;;;5072088;28;20196;-77
2022/03/27 02:40:36;;;;;;;21.13;11.87;;;8.70;99.90;;;;;;5072849;28;20215;-77
2022/03/27 02:43:02;;;;;;;21.63;12.33;;;8.80;99.90;;;;;;5073075;28;20173;-77
2022/03/27 02:45:28;;;;;;;21.60;12.10;;;8.80;99.90;;;;;;5073233;28;20172;-77
2022/03/27 02:47:55;;;;;;;24.27;12.77;;;8.90;99.90;;;;;;5073322;28;20518;-77
2022/03/27 02:50:20;;;;;;;25.57;12.37;;;9.10;99.90;;;;;;5072594;28;20233;-77
2022/03/27 02:52:46;;;;;;;19.80;11.80;;;9.10;99.90;;;;;;5073080;28;20259;-78
2022/03/27 02:55:12;;;;;;;21.83;12.73;;;9.00;99.90;;;;;;5073028;28;20721;-77
2022/03/27 02:57:38;;;;;;;19.27;12.70;;;8.90;99.90;;;;;;5072948;28;20262;-77
2022/03/27 03:00:08;;;;;;;24.00;13.17;;;8.60;99.90;;;;;;5074029;28;20258;-77
2022/03/27 03:02:35;;;;;;;20.50;12.63;;;8.60;99.90;;;;;;5072599;28;20174;-77
2022/03/27 03:05:02;;;;;;;26.73;13.53;;;8.50;99.90;;;;;;5072457;28;20184;-78
2022/03/27 03:07:28;;;;;;;26.40;14.57;;;8.50;99.90;;;;;;5072708;28;20671;-78
2022/03/27 03:09:54;;;;;;;24.80;14.27;;;8.40;99.90;;;;;;5072741;28;20284;-78
2022/03/27 03:12:20;;;;;;;24.77;13.80;;;8.50;99.90;;;;;;5072507;28;20176;-78
2022/03/27 03:14:46;;;;;;;22.80;13.33;;;8.50;99.90;;;;;;5072591;28;20228;-78
2022/03/27 03:17:12;;;;;;;25.30;13.80;;;8.60;99.90;;;;;;5072528;28;20598;-78
2022/03/27 03:19:38;;;;;;;23.23;13.73;;;8.60;99.90;;;;;;5072312;28;20214;-78
2022/03/27 03:22:04;;;;;;;25.17;13.70;;;8.50;99.90;;;;;;5072326;28;20211;-78
2022/03/27 03:24:30;;;;;;;26.93;13.20;;;8.40;99.90;;;;;;5072344;28;20172;-78
2022/03/27 03:26:57;;;;;;;32.67;15.23;;;8.30;99.90;;;;;;5072283;28;20234;-78
2022/03/27 03:29:23;;;;;;;22.63;12.67;;;8.40;99.90;;;;;;5072334;28;20291;-78
2022/03/27 03:31:49;;;;;;;25.10;14.10;;;8.40;99.90;;;;;;5072059;28;20219;-77
2022/03/27 03:34:15;;;;;;;22.87;13.47;;;8.50;99.90;;;;;;5072120;28;20173;-77
2022/03/27 03:36:41;;;;;;;29.20;13.80;;;8.30;99.90;;;;;;5072163;28;20208;-77
2022/03/27 03:39:07;;;;;;;24.47;13.77;;;8.40;99.90;;;;;;5072001;28;20243;-77
2022/03/27 03:41:34;;;;;;;24.53;14.60;;;8.40;99.90;;;;;;5071710;28;20179;-77
2022/03/27 03:43:59;;;;;;;26.77;14.47;;;8.30;99.90;;;;;;5071967;28;20178;-77
2022/03/27 03:46:25;;;;;;;28.17;14.07;;;8.40;99.90;;;;;;5071857;28;20557;-77
2022/03/27 03:48:51;;;;;;;27.37;14.40;;;8.40;99.90;;;;;;5071495;28;20199;-77
2022/03/27 03:51:17;;;;;;;28.37;14.10;;;8.30;99.90;;;;;;5071456;28;20188;-77
2022/03/27 03:53:43;;;;;;;32.23;14.43;;;8.30;99.90;;;;;;5071943;28;20183;-77
2022/03/27 03:56:11;;;;;;;23.67;12.80;;;8.30;99.90;;;;;;5071836;28;20182;-78
2022/03/27 03:58:36;;;;;;;22.23;13.03;;;8.20;99.90;;;;;;5071655;28;20212;-78
2022/03/27 04:01:03;;;;;;;27.73;14.93;;;8.20;99.90;;;;;;5071524;28;20179;-78
2022/03/27 04:03:29;;;;;;;30.73;14.47;;;8.30;99.90;;;;;;5071425;28;20633;-78
2022/03/27 04:05:55;;;;;;;25.63;14.93;;;8.20;99.90;;;;;;5071297;28;20180;-77
2022/03/27 04:08:21;;;;;;;28.87;14.63;;;8.00;99.90;;;;;;5071425;28;20282;-76
2022/03/27 04:10:47;;;;;;;28.40;15.80;;;8.00;99.90;;;;;;5071535;28;20176;-77
2022/03/27 04:13:13;;;;;;;28.77;14.50;;;7.90;99.90;;;;;;5071282;28;20732;-77
2022/03/27 04:15:39;;;;;;;29.57;15.27;;;7.90;99.90;;;;;;5071306;28;20312;-76
2022/03/27 04:18:06;;;;;;;27.67;14.60;;;7.90;99.90;;;;;;5071184;28;20571;-77
2022/03/27 04:20:32;;;;;;;26.40;14.03;;;7.80;99.90;;;;;;5071278;28;20197;-77
2022/03/27 04:22:58;;;;;;;28.03;14.87;;;7.80;99.90;;;;;;5071054;28;20175;-74
2022/03/27 04:25:23;;;;;;;31.23;15.33;;;7.70;99.90;;;;;;5071271;28;20224;-74
2022/03/27 04:27:49;;;;;;;30.00;14.87;;;7.80;99.90;;;;;;5071008;28;20679;-74
2022/03/27 04:30:15;;;;;;;30.27;15.67;;;7.80;99.90;;;;;;5070990;28;20202;-74
2022/03/27 04:32:41;;;;;;;30.03;14.87;;;7.80;99.90;;;;;;5071032;28;20176;-73
2022/03/27 04:35:08;;;;;;;34.87;16.27;;;7.60;99.90;;;;;;5071066;28;20181;-73
2022/03/27 04:37:44;;;;;;;29.77;15.63;;;7.60;99.90;;;;;;5071092;28;20175;-74
2022/03/27 04:40:13;;;;;;;36.50;16.03;;;7.60;99.90;;;;;;5070747;28;20198;-77
2022/03/27 04:42:40;;;;;;;32.47;16.00;;;7.50;99.90;;;;;;5072102;28;20513;-76
2022/03/27 04:45:06;;;;;;;38.90;17.70;;;7.50;99.90;;;;;;5070807;28;20184;-74
2022/03/27 04:47:32;;;;;;;45.13;18.80;;;7.50;99.90;;;;;;5070922;28;20180;-73
2022/03/27 04:49:57;;;;;;;43.60;19.33;;;7.40;99.90;;;;;;5070441;28;20578;-74
2022/03/27 04:52:23;;;;;;;43.37;19.03;;;7.50;99.90;;;;;;5070750;28;20540;-74
2022/03/27 04:54:49;;;;;;;43.97;18.50;;;7.30;99.90;;;;;;5070868;28;20172;-74
2022/03/27 04:57:15;;;;;;;37.40;17.90;;;7.30;99.90;;;;;;5070888;28;20182;-73
2022/03/27 04:59:41;;;;;;;41.70;18.23;;;7.20;99.90;;;;;;5071483;28;20209;-74
2022/03/27 05:02:06;;;;;;;39.97;17.30;;;7.30;99.90;;;;;;5070384;28;20778;-74
2022/03/27 05:04:32;;;;;;;33.27;17.33;;;7.50;99.90;;;;;;5070462;28;20194;-73
2022/03/27 05:06:57;;;;;;;38.93;17.53;;;7.40;99.90;;;;;;5070718;28;20638;-73
2022/03/27 05:09:23;;;;;;;37.30;16.60;;;7.20;99.90;;;;;;5070674;28;20200;-73
2022/03/27 05:11:50;;;;;;;40.00;18.83;;;7.10;99.90;;;;;;5071784;28;20236;-73
2022/03/27 05:14:16;;;;;;;38.03;17.17;;;7.10;99.90;;;;;;5070685;28;20205;-73
2022/03/27 05:16:41;;;;;;;38.17;16.20;;;7.00;99.90;;;;;;5070667;28;20178;-74
2022/03/27 05:19:07;;;;;;;38.03;17.20;;;7.10;99.90;;;;;;5070463;28;20211;-74
2022/03/27 05:21:35;;;;;;;43.40;17.23;;;7.10;99.90;;;;;;5070443;28;20257;-74
2022/03/27 05:24:01;;;;;;;36.97;16.73;;;7.10;99.90;;;;;;5070628;28;20179;-74
2022/03/27 05:26:27;;;;;;;33.00;16.10;;;7.20;99.90;;;;;;5070598;28;20171;-74
2022/03/27 05:28:54;;;;;;;36.23;16.27;;;7.10;99.90;;;;;;5070233;28;20212;-74
2022/03/27 05:31:20;;;;;;;31.63;15.27;;;7.00;99.90;;;;;;5070242;28;20189;-74
2022/03/27 05:33:46;;;;;;;36.30;15.77;;;7.00;99.90;;;;;;5070556;28;20180;-73
2022/03/27 05:36:12;;;;;;;30.67;15.53;;;6.90;99.90;;;;;;5070461;28;20266;-74
2022/03/27 05:38:38;;;;;;;33.90;15.23;;;7.00;99.90;;;;;;5070261;28;20286;-73
2022/03/27 05:41:06;;;;;;;31.73;15.10;;;7.00;99.90;;;;;;5069747;28;20178;-74
2022/03/27 05:43:32;;;;;;;31.93;15.47;;;7.10;99.90;;;;;;5070429;28;20189;-74
2022/03/27 05:45:58;;;;;;;26.53;13.90;;;7.10;99.90;;;;;;5070397;28;20180;-73
2022/03/27 05:48:23;;;;;;;26.63;13.17;;;7.10;99.90;;;;;;5070299;28;20649;-74
2022/03/27 05:50:49;;;;;;;31.27;13.93;;;7.10;99.90;;;;;;5069981;28;20227;-74
2022/03/27 05:53:15;;;;;;;28.57;13.17;;;7.20;99.90;;;;;;5070137;28;20276;-73
2022/03/27 05:55:41;;;;;;;30.90;13.97;;;7.00;99.90;;;;;;5070290;28;20263;-74
2022/03/27 05:58:07;;;;;;;29.77;14.53;;;7.10;99.90;;;;;;5070150;28;20193;-74
2022/03/27 06:00:33;;;;;;;28.20;14.67;;;7.10;99.90;;;;;;5070152;28;20637;-74
2022/03/27 06:02:59;;;;;;;31.67;13.60;;;7.10;99.90;;;;;;5069998;28;20760;-73
2022/03/27 06:05:25;;;;;;;25.80;12.63;;;6.90;99.90;;;;;;5069925;28;20177;-73
2022/03/27 06:07:52;;;;;;;31.10;13.90;;;6.80;99.90;;;;;;5070038;28;20243;-74
2022/03/27 06:10:22;;;;;;;27.63;13.10;;;7.10;99.90;;;;;;5070078;28;20253;-74
2022/03/27 06:12:48;;;;;;;26.50;13.13;;;7.30;99.90;;;;;;5072777;28;20195;-74
2022/03/27 06:15:14;;;;;;;28.00;13.87;;;7.20;99.90;;;;;;5073804;28;20581;-77
2022/03/27 06:17:48;;;;;;;28.53;13.40;;;7.20;99.90;;;;;;5073886;28;20180;-77
2022/03/27 06:20:16;;;;;;;30.17;13.50;;;7.10;99.90;;;;;;5073589;28;20296;-77
2022/03/27 06:22:42;;;;;;;27.70;12.93;;;7.20;99.90;;;;;;5073462;28;20263;-77
2022/03/27 06:25:09;;;;;;;30.73;14.00;;;7.30;99.90;;;;;;5073513;28;20176;-77
2022/03/27 06:27:36;;;;;;;31.10;13.90;;;7.30;99.90;;;;;;5073448;28;20290;-76
2022/03/27 06:30:09;;;;;;;28.20;14.07;;;7.40;99.90;;;;;;5073406;28;20283;-76
2022/03/27 06:32:36;;;;;;;27.83;13.23;;;7.50;99.90;;;;;;5073145;28;20656;-77
2022/03/27 06:35:04;;;;;;;26.67;13.00;;;7.30;99.90;;;;;;5073363;28;20204;-77
2022/03/27 06:37:30;;;;;;;28.20;13.80;;;7.20;99.90;;;;;;5073277;28;20193;-77
2022/03/27 06:39:56;;;;;;;28.27;14.37;;;7.30;99.90;;;;;;5072748;28;20210;-76
2022/03/27 06:42:24;;;;;;;30.13;13.57;;;7.30;99.90;;;;;;5073027;28;20180;-77
2022/03/27 06:44:51;;;;;;;31.67;15.23;;;7.50;99.90;;;;;;5073173;28;20183;-76
2022/03/27 06:47:21;;;;;;;28.33;13.90;;;7.50;99.90;;;;;;5073133;28;20172;-74
2022/03/27 06:49:48;;;;;;;29.97;14.60;;;7.80;99.90;;;;;;5072581;28;20210;-74
2022/03/27 06:52:14;;;;;;;26.03;13.50;;;7.80;99.90;;;;;;5072800;28;20658;-74
2022/03/27 06:54:40;;;;;;;28.90;13.93;;;7.70;99.90;;;;;;5073025;28;20181;-74
2022/03/27 06:57:06;;;;;;;28.83;14.37;;;7.80;99.90;;;;;;5072961;28;20675;-74
2022/03/27 07:03:01;;;;;;;28.87;13.67;;;8.10;99.90;;;;;;5072752;28;20582;-74
2022/03/27 07:05:03;;;;;;;23.10;13.07;;;8.20;99.90;;;;;;5074107;28;20210;-74
2022/03/27 07:07:29;;;;;;;25.90;13.63;;;8.00;99.90;;;;;;5072777;28;20229;-74
2022/03/27 07:09:54;;;;;;;27.27;13.93;;;8.00;99.90;;;;;;5072541;28;20566;-74
2022/03/27 07:12:20;;;;;;;27.67;13.70;;;7.60;99.90;;;;;;5072416;28;20187;-73
2022/03/27 07:14:46;;;;;;;24.50;12.83;;;7.70;99.90;;;;;;5072642;28;20165;-73
2022/03/27 07:17:15;;;;;;;31.47;14.23;;;7.80;99.90;;;;;;5072819;28;20180;-74
2022/03/27 07:19:41;;;;;;;27.67;13.53;;;8.70;99.90;;;;;;5072352;28;20293;-74
2022/03/27 07:22:07;;;;;;;27.10;12.83;;;9.00;99.90;;;;;;5072268;28;20205;-74
2022/03/27 07:24:32;;;;;;;22.87;12.50;;;9.40;99.90;;;;;;5071840;28;20170;-73
2022/03/27 07:26:58;;;;;;;25.53;13.33;;;9.70;99.90;;;;;;5072238;28;20194;-74
2022/03/27 07:29:23;;;;;;;25.00;13.77;;;9.30;99.90;;;;;;5072342;28;20208;-73
2022/03/27 07:31:49;;;;;;;24.23;13.50;;;9.20;99.90;;;;;;5072100;28;20189;-73
2022/03/27 07:34:16;;;;;;;21.37;12.47;;;10.70;99.90;;;;;;5072130;28;20718;-74
2022/03/27 07:36:42;;;;;;;22.53;12.33;;;11.60;99.90;;;;;;5072232;28;20230;-74
2022/03/27 07:39:09;;;;;;;22.23;12.53;;;11.70;99.90;;;;;;5073192;28;20204;-74
2022/03/27 07:41:35;;;;;;;25.70;12.80;;;12.10;99.00;;;;;;5071416;28;20242;-74
2022/03/27 07:44:01;;;;;;;21.87;12.30;;;11.20;99.90;;;;;;5071724;28;20637;-73
2022/03/27 07:46:26;;;;;;;23.67;13.30;;;11.60;99.90;;;;;;5071651;28;20181;-73
2022/03/27 07:48:52;;;;;;;22.43;13.10;;;12.40;99.90;;;;;;5072086;28;20554;-74
2022/03/27 07:51:18;;;;;;;21.50;12.20;;;13.60;96.50;;;;;;5071133;28;20213;-74
2022/03/27 07:53:43;;;;;;;21.70;12.93;;;14.40;92.20;;;;;;5071743;28;20572;-74
2022/03/27 07:56:09;;;;;;;18.27;12.03;;;14.30;92.20;;;;;;5071631;28;20585;-74
2022/03/27 07:58:36;;;;;;;20.87;12.10;;;14.10;92.90;;;;;;5071534;28;20644;-74
2022/03/27 08:01:03;;;;;;;19.97;12.50;;;16.20;90.00;;;;;;5071481;28;20172;-77
2022/03/27 08:03:28;;;;;;;17.20;11.47;;;15.40;86.90;;;;;;5071318;28;20644;-77
2022/03/27 08:05:54;;;;;;;16.97;11.00;;;15.40;87.20;;;;;;5071563;28;20287;-77
2022/03/27 08:08:20;;;;;;;16.33;11.03;;;16.40;83.60;;;;;;5071372;28;20267;-77
2022/03/27 08:10:45;;;;;;;14.47;10.80;;;17.60;81.40;;;;;;5069477;28;20184;-71
2022/03/27 08:13:11;;;;;;;15.48;10.90;;;17.40;77.60;;;;;;5070173;28;20266;-71
2022/03/27 08:15:37;;;;;;;13.85;10.50;;;16.90;81.70;;;;;;5070924;28;20172;-72
2022/03/27 08:18:02;;;;;;;13.18;10.60;;;16.20;84.10;;;;;;5070867;28;20176;-71
2022/03/27 08:20:29;;;;;;;16.65;10.40;;;15.10;85.90;;;;;;5070825;28;20279;-71
2022/03/27 08:22:55;;;;;;;14.52;10.65;;;16.40;80.10;;;;;;5070721;28;20179;-71
2022/03/27 08:28:08;;;;;;;16.38;11.32;;;15.20;83.40;;;;;;5072021;28;20741;-73
2022/03/27 08:30:34;;;;;;;12.77;10.23;;;14.70;89.70;;;;;;5070629;28;20192;-73
2022/03/27 08:32:59;;;;;;;13.88;9.98;;;14.00;88.50;;;;;;5070086;28;20179;-74
2022/03/27 08:35:25;;;;;;;15.27;9.73;;;13.80;89.20;;;;;;5069513;28;20653;-73
2022/03/27 08:37:51;;;;;;;13.82;10.38;;;13.60;90.40;;;;;;5070280;28;20637;-73
2022/03/27 08:40:18;;;;;;;15.38;11.20;;;13.30;90.10;;;;;;5070291;28;20552;-74
2022/03/27 08:42:44;;;;;;;12.55;9.88;;;14.50;89.20;;;;;;5070292;28;20173;-75
2022/03/27 08:45:10;;;;;;;12.95;10.43;;;15.40;84.80;;;;;;5070655;28;20280;-74
2022/03/27 08:47:38;;;;;;;17.10;11.38;;;17.50;79.80;;;;;;5070514;28;20181;-73
2022/03/27 08:50:42;;;;;;;15.02;11.15;;;17.70;76.30;;;;;;5070209;28;20599;-74
2022/03/27 08:53:11;;;;;;;15.13;10.10;;;16.90;79.80;;;;;;5069720;28;20924;-75
2022/03/27 08:55:39;;;;;;;13.75;10.63;;;16.20;80.20;;;;;;5070384;28;20187;-74
2022/03/27 08:58:08;;;;;;;15.27;11.18;;;15.00;83.80;;;;;;5070351;28;20644;-74
2022/03/27 09:00:35;;;;;;;15.45;10.30;;;15.20;83.80;;;;;;5070380;28;20200;-75
2022/03/27 09:03:03;;;;;;;15.80;10.15;;;15.30;86.00;;;;;;5070291;28;20165;-74
2022/03/27 09:05:29;;;;;;;15.57;10.32;;;15.30;85.70;;;;;;5069913;28;20222;-74
2022/03/27 09:07:56;;;;;;;16.38;10.05;;;15.50;84.70;;;;;;5069795;28;20169;-73
2022/03/27 09:10:24;;;;;;;13.07;9.73;;;15.70;82.00;;;;;;5069632;28;20219;-74
2022/03/27 09:12:51;;;;;;;14.48;9.93;;;15.10;80.90;;;;;;5069285;28;20202;-75
2022/03/27 09:15:19;;;;;;;15.25;10.80;;;14.40;84.50;;;;;;5069702;28;20173;-74
2022/03/27 09:18:04;;;;;;;13.23;9.88;;;15.20;82.50;;;;;;5070368;28;20176;-73
2022/03/27 09:20:40;;;;;;;14.48;8.93;;;14.70;80.50;;;;;;5069746;28;20261;-73
2022/03/27 09:23:21;;;;;;;14.20;9.98;;;14.50;82.30;;;;;;5069708;28;20179;-72
2022/03/27 09:25:54;;;;;;;16.73;10.27;;;15.20;81.60;;;;;;5069292;28;20175;-74
2022/03/27 09:28:25;;;;;;;13.95;9.77;;;15.00;81.60;;;;;;5069004;28;20192;-73
2022/03/27 09:30:51;;;;;;;19.55;10.52;;;15.40;82.60;;;;;;5067851;28;20222;-71
2022/03/27 09:33:34;;;;;;;15.82;9.45;;;16.20;79.90;;;;;;5067754;28;20179;-71
2022/03/27 09:36:04;;;;;;;15.70;10.20;;;16.00;77.90;;;;;;5069205;28;20172;-71
2022/03/27 09:38:30;;;;;;;17.10;9.60;;;15.60;79.70;;;;;;5068937;28;20219;-71
2022/03/27 09:40:55;;;;;;;17.13;9.93;;;14.60;79.60;;;;;;5069069;28;20173;-71
2022/03/27 09:43:22;;;;;;;15.50;9.70;;;14.70;81.50;;;;;;5068472;28;20173;-71
2022/03/27 09:46:02;;;;;;;16.37;10.13;;;14.80;81.80;;;;;;5069445;28;20214;-71
2022/03/27 09:48:28;;;;;;;17.83;10.97;;;14.50;82.40;;;;;;5073091;28;20240;-71
2022/03/27 09:50:58;;;;;;;15.70;10.53;;;14.20;83.60;;;;;;5072671;28;20172;-71
2022/03/27 09:53:31;;;;;;;15.83;10.20;;;15.10;83.40;;;;;;5071941;28;20195;-71
2022/03/27 09:55:59;;;;;;;14.33;10.00;;;14.70;82.60;;;;;;5071162;28;20652;-71
2022/03/27 09:58:45;;;;;;;16.10;10.33;;;15.10;80.50;;;;;;5070654;28;20196;-71
2022/03/27 10:01:11;;;;;;;15.43;10.53;;;15.20;79.80;;;;;;5072342;28;20710;-71
2022/03/27 10:03:56;;;;;;;15.30;9.83;;;14.50;82.50;;;;;;5071821;28;20172;-71
2022/03/27 10:06:34;;;;;;;12.67;8.93;;;15.10;82.80;;;;;;5072231;28;20534;-71
2022/03/27 10:09:01;;;;;;;14.97;9.60;;;15.80;78.50;;;;;;5071828;28;20192;-71
2022/03/27 10:11:28;;;;;;;14.38;9.80;;;15.70;79.50;;;;;;5071742;28;20538;-71
2022/03/27 10:13:54;;;;;;;15.75;9.65;;;15.70;80.00;;;;;;5073903;28;20531;-72
2022/03/27 10:16:29;;;;;;;13.83;9.33;;;16.60;78.40;;;;;;5072642;28;20176;-75
2022/03/27 10:19:02;;;;;;;16.88;10.10;;;16.40;77.20;;;;;;5072158;28;20204;-76
2022/03/27 10:21:29;;;;;;;12.73;9.13;;;15.60;79.30;;;;;;5074013;28;20164;-74
2022/03/27 10:24:14;;;;;;;15.45;9.13;;;15.80;78.20;;;;;;5072791;28;20173;-75
2022/03/27 10:26:42;;;;;;;17.33;9.33;;;15.00;78.80;;;;;;5072067;28;20192;-74
2022/03/27 10:29:09;;;;;;;13.47;9.27;;;15.20;82.50;;;;;;5072528;28;20208;-75
2022/03/27 10:31:35;;;;;;;14.27;8.90;;;16.50;80.70;;;;;;5072509;28;20176;-75
2022/03/27 10:34:03;;;;;;;11.52;8.43;;;16.70;76.90;;;;;;5072314;28;20199;-74
2022/03/27 10:36:50;;;;;;;14.70;9.47;;;16.70;79.40;;;;;;5072100;28;20172;-74
2022/03/27 10:39:20;;;;;;;15.20;8.50;;;16.70;77.30;;;;;;5071929;28;20311;-75
2022/03/27 10:41:58;;;;;;;14.25;8.88;;;16.20;75.60;;;;;;5071827;28;20544;-75
2022/03/27 10:44:41;;;;;;;13.20;9.20;;;15.80;75.50;;;;;;5072141;28;20196;-75
2022/03/27 10:47:20;;;;;;;15.47;10.03;;;16.60;78.80;;;;;;5072290;28;20613;-75
2022/03/27 10:50:01;;;;;;;15.40;9.73;;;16.00;76.90;;;;;;5071772;28;20238;-75
2022/03/27 10:52:30;;;;;;;12.90;8.63;;;16.90;74.70;;;;;;5071987;28;20183;-75
2022/03/27 10:54:58;;;;;;;14.20;9.43;;;16.90;75.30;;;;;;5071155;28;20180;-75
2022/03/27 10:57:35;;;;;;;13.30;9.23;;;17.00;75.00;;;;;;5069889;28;20668;-76
2022/03/27 11:02:44;;;;;;;16.10;9.87;;;16.10;76.30;;;;;;5085616;22;20225;-72
2022/03/27 11:07:45;;;;;;;17.17;9.97;;;16.20;74.30;;;;;;5154414;22;20232;-82
2022/03/27 11:10:41;;;;;;;16.87;9.23;;;16.10;75.40;;;;;;5035114;28;20185;-84
2022/03/27 11:13:25;;;;;;;14.93;8.93;;;17.00;75.40;;;;;;5042103;28;20305;-83
2022/03/27 11:16:11;;;;;;;16.43;9.17;;;17.50;76.10;;;;;;5035978;28;20518;-83
2022/03/27 11:18:48;;;;;;;15.03;9.70;;;17.80;72.30;;;;;;5014104;28;20204;-83
2022/03/27 11:21:34;;;;;;;20.90;9.23;;;17.50;72.30;;;;;;5016678;28;20276;-82
2022/03/27 11:24:03;;;;;;;17.37;9.00;;;16.70;71.00;;;;;;5032386;28;20239;-84
2022/03/27 11:26:31;;;;;;;16.67;9.37;;;16.90;70.40;;;;;;5014309;28;20197;-82
2022/03/27 11:29:24;;;;;;;17.23;8.57;;;16.70;72.00;;;;;;5035423;28;20181;-82
2022/03/27 11:32:08;;;;;;;19.30;10.37;;;17.00;70.60;;;;;;5016307;28;20181;-82
2022/03/27 11:34:38;;;;;;;14.80;9.00;;;16.60;71.10;;;;;;5035191;28;20190;-83
2022/03/27 11:37:14;;;;;;;17.10;9.30;;;16.50;71.30;;;;;;5032269;28;20181;-84
2022/03/27 11:39:40;;;;;;;14.13;8.87;;;16.80;69.90;;;;;;5032458;28;20229;-82
2022/03/27 11:42:29;;;;;;;17.97;9.43;;;17.00;70.30;;;;;;5034303;28;20166;-83
2022/03/27 11:45:16;;;;;;;17.17;8.97;;;17.10;69.40;;;;;;5017450;28;20186;-82
2022/03/27 11:47:48;;;;;;;15.30;8.47;;;17.40;70.70;;;;;;5035014;28;20235;-84
2022/03/27 11:50:40;;;;;;;14.20;8.33;;;18.60;67.70;;;;;;5034746;28;20174;-84
2022/03/27 11:53:05;;;;;;;15.47;8.80;;;19.80;63.90;;;;;;5030089;28;20654;-83
2022/03/27 11:55:33;;;;;;;16.67;8.60;;;19.40;63.60;;;;;;5035427;28;20201;-85
2022/03/27 11:58:00;;;;;;;13.30;8.00;;;18.80;63.90;;;;;;5034690;28;20170;-86
2022/03/27 12:00:34;;;;;;;16.23;7.67;;;17.60;65.30;;;;;;5034313;28;20243;-86
2022/03/27 12:03:02;;;;;;;14.40;8.13;;;17.50;68.20;;;;;;5016546;28;20174;-87
2022/03/27 12:05:38;;;;;;;16.13;9.00;;;16.80;68.30;;;;;;5034428;28;20283;-86
2022/03/27 12:08:04;;;;;;;15.30;8.50;;;17.40;66.80;;;;;;5034690;28;20178;-84
2022/03/27 12:10:46;;;;;;;17.93;8.57;;;17.30;67.00;;;;;;5016623;28;20545;-84
2022/03/27 12:13:14;;;;;;;13.10;7.60;;;17.40;66.00;;;;;;5034914;28;20340;-83
2022/03/27 12:15:49;;;;;;;13.10;7.77;;;17.00;64.50;;;;;;5034911;28;20190;-83
2022/03/27 12:18:35;;;;;;;16.23;8.13;;;17.50;68.10;;;;;;5015587;28;20173;-84
2022/03/27 12:21:14;;;;;;;18.17;8.40;;;18.10;66.60;;;;;;5015190;28;20265;-86
2022/03/27 12:23:46;;;;;;;17.00;8.57;;;18.00;64.90;;;;;;5032582;28;20194;-86
2022/03/27 12:29:40;;;;;;;17.30;8.80;;;17.70;65.20;;;;;;5034071;28;20558;-86
2022/03/27 12:32:07;;;;;;;17.90;8.43;;;17.50;65.50;;;;;;5015005;28;20546;-86
2022/03/27 12:34:34;;;;;;;17.30;8.93;;;17.60;67.60;;;;;;5015594;28;20201;-85
2022/03/27 12:37:10;;;;;;;15.33;8.70;;;18.00;66.10;;;;;;5013650;28;20178;-86
2022/03/27 12:39:38;;;;;;;18.40;8.90;;;17.80;65.70;;;;;;5016131;28;20217;-87
2022/03/27 12:42:05;;;;;;;18.20;9.67;;;17.10;67.50;;;;;;5032860;28;20177;-86
2022/03/27 12:44:52;;;;;;;18.33;9.47;;;17.40;66.80;;;;;;5033153;28;20272;-85
2022/03/27 12:47:17;;;;;;;17.47;9.07;;;16.60;67.60;;;;;;5015916;28;20177;-86
2022/03/27 12:49:50;;;;;;;17.63;9.13;;;17.40;67.70;;;;;;5033111;28;20178;-85
2022/03/27 12:52:17;;;;;;;15.63;8.80;;;16.90;67.80;;;;;;5032662;28;20177;-86
2022/03/27 12:55:00;;;;;;;16.87;8.67;;;16.50;67.10;;;;;;5015320;28;20221;-85
2022/03/27 12:57:45;;;;;;;19.13;9.40;;;16.40;69.00;;;;;;5016126;28;20178;-85
2022/03/27 13:00:14;;;;;;;17.27;8.90;;;16.60;69.50;;;;;;5015669;28;20201;-83